< < Back
Terminal Aerodrome Forecast


Current Version              Previous Versions:   1  2  3  4  5  6  7  8  9  

Terminal Aerodrome Forecast

497
FTUS42 KILM 012300
TAFILM
TAF
KILM 012330Z 0200/0224 21006KT P6SM VCSH FEW015 FEW050 SCT120
     FM020900 24004KT P6SM FEW040 SCT250
     FM021300 27008KT P6SM SCT015 SCT050 SCT120
     FM021800 19011KT P6SM VCSH SCT050=

Latest METAR

836
SAUS70 KWBC 020400 RRB
MTRILM
METAR KILM 020353Z AUTO 21006KT 10SM CLR 26/24 A3009 RMK AO2 SLP189
T02610244


USA.gov is the U.S. government's official web portal to all federal, state and local government web resources and services.